Time;durP1;ratioP1;P1;durP2;ratioP2;P2;SDS_P1;SDS_P2;PMS_P1;PMS_P2;Temp;Humidity;BMP_temperature;BMP_pressure;BME280_temperature;BME280_humidity;BME280_pressure;Samples;Min_cycle;Max_cycle;Signal;HPM_P1;HPM_P2
2023/09/13 00:00:48;;;;;;;;;25.67;25.00;;;;;;;;5061309;28;48481;-77
2023/09/13 00:03:13;;;;;;;;;22.33;22.33;;;;;;;;5079984;28;45416;-77
2023/09/13 00:05:40;;;;;;;;;22.67;21.00;;;;;;;;5081466;28;45475;-77
2023/09/13 00:08:05;;;;;;;;;22.33;20.67;;;;;;;;5083584;28;45268;-77
2023/09/13 00:10:31;;;;;;;;;23.67;23.67;;;;;;;;5083247;28;45349;-77
2023/09/13 00:12:56;;;;;;;;;22.00;22.00;;;;;;;;5065214;28;45353;-76
2023/09/13 00:15:21;;;;;;;;;23.00;21.67;;;;;;;;5083371;28;45233;-76
2023/09/13 00:17:46;;;;;;;;;24.33;24.33;;;;;;;;5083301;28;45311;-77
2023/09/13 00:20:11;;;;;;;;;23.67;23.33;;;;;;;;5065170;28;47032;-77
2023/09/13 00:22:37;;;;;;;;;23.33;23.33;;;;;;;;5083095;28;45359;-77
2023/09/13 00:25:03;;;;;;;;;22.00;22.00;;;;;;;;5064617;28;45319;-77
2023/09/13 00:27:28;;;;;;;;;26.67;25.67;;;;;;;;5083077;28;45323;-76
2023/09/13 00:29:53;;;;;;;;;25.00;22.67;;;;;;;;5050749;28;46136;-77
2023/09/13 00:32:19;;;;;;;;;22.33;21.67;;;;;;;;5062208;28;45277;-77
2023/09/13 00:34:44;;;;;;;;;21.00;20.33;;;;;;;;5062378;28;45534;-77
2023/09/13 00:37:09;;;;;;;;;26.33;24.67;;;;;;;;5062254;28;45572;-77
2023/09/13 00:39:34;;;;;;;;;22.00;19.67;;;;;;;;5062334;28;45501;-77
2023/09/13 00:41:59;;;;;;;;;19.00;17.00;;;;;;;;5062623;28;45328;-77
2023/09/13 00:44:24;;;;;;;;;22.67;20.67;;;;;;;;5062242;28;45427;-77
2023/09/13 00:46:50;;;;;;;;;23.00;21.00;;;;;;;;5043971;28;46050;-77
2023/09/13 00:49:15;;;;;;;;;23.00;19.67;;;;;;;;5062075;28;45415;-77
2023/09/13 00:51:40;;;;;;;;;24.00;24.00;;;;;;;;5062323;28;45363;-77
2023/09/13 00:54:06;;;;;;;;;26.00;25.00;;;;;;;;5062263;28;45280;-77
2023/09/13 00:56:32;;;;;;;;;22.33;21.33;;;;;;;;5062267;28;45338;-77
2023/09/13 00:58:57;;;;;;;;;23.00;23.00;;;;;;;;5044208;28;48122;-77
2023/09/13 01:01:23;;;;;;;;;22.33;21.33;;;;;;;;5044085;28;45989;-77
2023/09/13 01:03:48;;;;;;;;;21.67;20.67;;;;;;;;5062710;28;45351;-77
2023/09/13 01:06:13;;;;;;;;;24.33;23.33;;;;;;;;5062196;28;45404;-77
2023/09/13 01:08:41;;;;;;;;;21.00;20.67;;;;;;;;5061947;28;45805;-77
2023/09/13 01:11:06;;;;;;;;;24.33;23.00;;;;;;;;5062145;28;45312;-77
2023/09/13 01:13:32;;;;;;;;;24.00;22.67;;;;;;;;5043776;28;45362;-77
2023/09/13 01:16:14;;;;;;;;;21.33;20.00;;;;;;;;5061651;28;45289;-77
2023/09/13 01:18:59;;;;;;;;;24.00;23.67;;;;;;;;5061675;28;46597;-77
2023/09/13 01:21:34;;;;;;;;;20.00;20.00;;;;;;;;5060866;28;45288;-76
2023/09/13 01:24:00;;;;;;;;;20.67;20.00;;;;;;;;5061758;28;45443;-77
2023/09/13 01:26:34;;;;;;;;;24.00;23.00;;;;;;;;5061342;28;45299;-77
2023/09/13 01:29:00;;;;;;;;;19.00;19.00;;;;;;;;5067718;28;45268;-77
2023/09/13 01:31:27;;;;;;;;;19.00;17.67;;;;;;;;5082308;28;45353;-77
2023/09/13 01:33:52;;;;;;;;;22.33;22.33;;;;;;;;5082325;28;45306;-77
2023/09/13 01:36:17;;;;;;;;;26.67;24.00;;;;;;;;5082962;28;45321;-77
2023/09/13 01:38:42;;;;;;;;;22.67;21.33;;;;;;;;5082783;28;46021;-77
2023/09/13 01:41:14;;;;;;;;;22.67;22.00;;;;;;;;5083066;28;45342;-77
2023/09/13 01:43:41;;;;;;;;;21.00;20.33;;;;;;;;5082695;28;45445;-77
2023/09/13 01:46:06;;;;;;;;;22.33;20.33;;;;;;;;5082922;28;45438;-77
2023/09/13 01:48:32;;;;;;;;;19.33;19.33;;;;;;;;5082933;28;46269;-77
2023/09/13 01:50:58;;;;;;;;;22.67;22.00;;;;;;;;5082997;28;45319;-77
2023/09/13 01:53:23;;;;;;;;;20.67;19.33;;;;;;;;5065043;28;45390;-77
2023/09/13 01:55:48;;;;;;;;;19.67;17.33;;;;;;;;5083504;28;45315;-77
2023/09/13 01:58:13;;;;;;;;;21.67;21.67;;;;;;;;5083434;28;46205;-77
2023/09/13 02:00:39;;;;;;;;;19.00;19.00;;;;;;;;5082267;28;44637;-77
2023/09/13 02:03:05;;;;;;;;;20.33;19.67;;;;;;;;5082823;28;45401;-77
2023/09/13 02:05:30;;;;;;;;;19.00;17.33;;;;;;;;5083275;28;45544;-77
2023/09/13 02:07:55;;;;;;;;;21.00;21.00;;;;;;;;5064971;28;46958;-77
2023/09/13 02:10:20;;;;;;;;;20.67;20.00;;;;;;;;5063980;28;45426;-77
2023/09/13 02:12:45;;;;;;;;;21.00;21.00;;;;;;;;5083094;28;45319;-77
2023/09/13 02:15:12;;;;;;;;;19.33;19.00;;;;;;;;5082699;28;45359;-77
2023/09/13 02:17:37;;;;;;;;;19.00;18.67;;;;;;;;5082239;28;46022;-77
2023/09/13 02:20:04;;;;;;;;;18.00;15.67;;;;;;;;5083116;28;45328;-77
2023/09/13 02:22:29;;;;;;;;;20.33;18.67;;;;;;;;5082551;28;45571;-77
2023/09/13 02:24:54;;;;;;;;;19.33;19.33;;;;;;;;5082692;28;45165;-77
2023/09/13 02:27:20;;;;;;;;;22.00;20.67;;;;;;;;5063395;28;47172;-77
2023/09/13 02:29:45;;;;;;;;;21.67;21.33;;;;;;;;5069821;28;45230;-77
2023/09/13 02:32:11;;;;;;;;;25.33;21.67;;;;;;;;5062743;28;45502;-78
2023/09/13 02:34:36;;;;;;;;;19.33;19.33;;;;;;;;5062052;28;45406;-77
2023/09/13 02:37:01;;;;;;;;;26.00;21.67;;;;;;;;5061224;28;45538;-78
2023/09/13 02:39:33;;;;;;;;;18.00;18.00;;;;;;;;5061337;28;45295;-77
2023/09/13 02:41:59;;;;;;;;;20.33;19.00;;;;;;;;5061063;28;45369;-77
2023/09/13 02:44:24;;;;;;;;;20.33;20.33;;;;;;;;5060517;28;45445;-78
2023/09/13 02:46:50;;;;;;;;;21.67;20.33;;;;;;;;5060898;28;45512;-77
2023/09/13 02:49:15;;;;;;;;;23.00;21.00;;;;;;;;5060740;28;45230;-77
2023/09/13 02:51:40;;;;;;;;;21.00;19.67;;;;;;;;5042351;28;45176;-77
2023/09/13 02:54:06;;;;;;;;;17.00;17.00;;;;;;;;5041718;28;47331;-77
2023/09/13 02:56:31;;;;;;;;;19.00;19.00;;;;;;;;5060635;28;46091;-77
2023/09/13 02:58:56;;;;;;;;;23.67;23.00;;;;;;;;5059997;28;45366;-77
2023/09/13 03:01:22;;;;;;;;;19.67;17.67;;;;;;;;5060689;28;45293;-77
2023/09/13 03:03:47;;;;;;;;;19.33;18.00;;;;;;;;5060322;28;45380;-77
2023/09/13 03:06:13;;;;;;;;;17.00;16.67;;;;;;;;5042359;28;47005;-77
2023/09/13 03:08:38;;;;;;;;;17.33;15.00;;;;;;;;5060722;28;45360;-77
2023/09/13 03:11:10;;;;;;;;;18.33;18.33;;;;;;;;5061132;28;45326;-77
2023/09/13 03:13:35;;;;;;;;;20.00;20.00;;;;;;;;5060576;28;45219;-77
2023/09/13 03:16:01;;;;;;;;;23.00;22.00;;;;;;;;5042273;28;47761;-77
2023/09/13 03:18:26;;;;;;;;;26.33;22.00;;;;;;;;5042415;28;45312;-77
2023/09/13 03:20:51;;;;;;;;;21.33;20.00;;;;;;;;5060137;28;45362;-77
2023/09/13 03:23:16;;;;;;;;;21.33;20.67;;;;;;;;5059919;28;45343;-77
2023/09/13 03:25:42;;;;;;;;;21.33;21.00;;;;;;;;5059795;28;45284;-77
2023/09/13 03:28:07;;;;;;;;;19.00;18.00;;;;;;;;5060348;28;45258;-77
2023/09/13 03:30:33;;;;;;;;;24.33;21.33;;;;;;;;5079151;28;45482;-77
2023/09/13 03:32:59;;;;;;;;;19.33;18.67;;;;;;;;5081091;28;45322;-77
2023/09/13 03:35:24;;;;;;;;;22.33;19.67;;;;;;;;5080419;28;46437;-77
2023/09/13 03:37:49;;;;;;;;;21.67;20.00;;;;;;;;5061980;28;45890;-77
2023/09/13 03:40:14;;;;;;;;;18.33;17.67;;;;;;;;5079716;28;45355;-77
2023/09/13 03:42:39;;;;;;;;;20.00;20.00;;;;;;;;5079907;28;45354;-77
2023/09/13 03:45:05;;;;;;;;;17.00;17.00;;;;;;;;5080318;28;45484;-78
2023/09/13 03:47:30;;;;;;;;;18.67;17.00;;;;;;;;5080053;28;45268;-78
2023/09/13 03:49:55;;;;;;;;;17.33;17.33;;;;;;;;5080095;28;45580;-77
2023/09/13 03:52:20;;;;;;;;;18.33;17.67;;;;;;;;5061612;28;46015;-77
2023/09/13 03:54:45;;;;;;;;;15.00;15.00;;;;;;;;5079851;28;45370;-77
2023/09/13 03:57:11;;;;;;;;;19.33;18.00;;;;;;;;5079997;28;45292;-77
2023/09/13 03:59:36;;;;;;;;;19.00;18.00;;;;;;;;5080316;28;45361;-77
2023/09/13 04:02:01;;;;;;;;;19.67;19.67;;;;;;;;5080032;28;45331;-77
2023/09/13 04:04:26;;;;;;;;;16.00;15.00;;;;;;;;5079750;28;45465;-77
2023/09/13 04:06:51;;;;;;;;;10.33;10.00;;;;;;;;5079733;28;45355;-77
2023/09/13 04:09:18;;;;;;;;;19.00;17.00;;;;;;;;5080361;28;45330;-77
2023/09/13 04:11:43;;;;;;;;;17.67;17.33;;;;;;;;5079942;28;45481;-77
2023/09/13 04:14:08;;;;;;;;;16.67;15.67;;;;;;;;5079682;28;46158;-77
2023/09/13 04:16:33;;;;;;;;;18.33;18.33;;;;;;;;5079584;28;45366;-77
2023/09/13 04:18:58;;;;;;;;;18.33;17.33;;;;;;;;5079968;28;45244;-77
2023/09/13 04:21:23;;;;;;;;;17.00;14.67;;;;;;;;5079934;28;45335;-77
2023/09/13 04:23:49;;;;;;;;;18.00;17.67;;;;;;;;5079825;28;45325;-77
2023/09/13 04:26:20;;;;;;;;;16.00;15.33;;;;;;;;5061905;28;45203;-77
2023/09/13 04:28:45;;;;;;;;;16.67;16.67;;;;;;;;5075996;28;45384;-77
2023/09/13 04:31:10;;;;;;;;;15.00;14.33;;;;;;;;5059448;28;45297;-77
2023/09/13 04:33:52;;;;;;;;;20.33;20.33;;;;;;;;5058577;28;45358;-77
2023/09/13 04:36:17;;;;;;;;;15.33;15.00;;;;;;;;5058626;28;45559;-78
2023/09/13 04:38:43;;;;;;;;;16.67;16.67;;;;;;;;5058404;28;45336;-77
2023/09/13 04:41:13;;;;;;;;;19.00;18.67;;;;;;;;5058310;28;45371;-77
2023/09/13 04:43:38;;;;;;;;;17.33;16.00;;;;;;;;5058702;28;45360;-77
2023/09/13 04:46:03;;;;;;;;;19.33;17.00;;;;;;;;5058876;28;45349;-77
2023/09/13 04:48:28;;;;;;;;;19.00;16.67;;;;;;;;5059904;28;45344;-77
2023/09/13 04:50:54;;;;;;;;;20.00;18.33;;;;;;;;5041321;28;45986;-77
2023/09/13 04:53:19;;;;;;;;;22.67;20.00;;;;;;;;5062870;28;46306;-77
2023/09/13 04:55:44;;;;;;;;;19.67;19.00;;;;;;;;5062498;28;45280;-77
2023/09/13 04:58:10;;;;;;;;;18.33;18.33;;;;;;;;5062631;28;45287;-78
2023/09/13 05:00:35;;;;;;;;;18.67;16.00;;;;;;;;5062399;28;45205;-77
2023/09/13 05:03:00;;;;;;;;;20.00;18.67;;;;;;;;5063229;28;45221;-77
2023/09/13 05:05:25;;;;;;;;;17.00;17.00;;;;;;;;5062822;28;45272;-77
2023/09/13 05:07:50;;;;;;;;;15.67;15.67;;;;;;;;5063252;28;45226;-77
2023/09/13 05:10:16;;;;;;;;;20.00;16.67;;;;;;;;5062691;28;45209;-77
2023/09/13 05:12:41;;;;;;;;;23.33;20.00;;;;;;;;5044305;28;47108;-78
2023/09/13 05:15:06;;;;;;;;;20.00;19.00;;;;;;;;5062031;28;45366;-78
2023/09/13 05:17:31;;;;;;;;;18.67;17.67;;;;;;;;5062943;28;45291;-77
2023/09/13 05:19:57;;;;;;;;;21.67;21.33;;;;;;;;5062720;28;45534;-77
2023/09/13 05:22:22;;;;;;;;;19.33;18.33;;;;;;;;5062278;28;46185;-78
2023/09/13 05:24:47;;;;;;;;;20.00;17.67;;;;;;;;5044099;28;45378;-77
2023/09/13 05:27:12;;;;;;;;;22.00;19.33;;;;;;;;5063093;28;45401;-78
2023/09/13 05:29:37;;;;;;;;;21.00;19.67;;;;;;;;5062598;28;45402;-77
2023/09/13 05:32:02;;;;;;;;;21.33;20.33;;;;;;;;5062748;28;45336;-77
2023/09/13 05:34:28;;;;;;;;;21.00;19.67;;;;;;;;5063297;28;45355;-78
2023/09/13 05:36:53;;;;;;;;;22.67;21.33;;;;;;;;5062417;28;45569;-78
2023/09/13 05:39:19;;;;;;;;;19.67;19.33;;;;;;;;5062681;28;45558;-79
2023/09/13 05:41:45;;;;;;;;;15.67;15.67;;;;;;;;5062137;28;45959;-79
2023/09/13 05:44:10;;;;;;;;;17.00;16.67;;;;;;;;5061038;28;45356;-77
2023/09/13 05:46:35;;;;;;;;;17.00;17.00;;;;;;;;5061168;28;45378;-79
2023/09/13 05:49:00;;;;;;;;;21.33;20.00;;;;;;;;5042665;28;46227;-81
2023/09/13 05:51:26;;;;;;;;;19.67;19.00;;;;;;;;5060544;28;46303;-80
2023/09/13 05:53:51;;;;;;;;;25.67;23.67;;;;;;;;5060920;28;45312;-80
2023/09/13 05:56:16;;;;;;;;;32.00;27.67;;;;;;;;5061041;28;45381;-80
2023/09/13 05:58:43;;;;;;;;;33.33;30.67;;;;;;;;5060090;28;45296;-82
2023/09/13 06:01:08;;;;;;;;;36.33;29.33;;;;;;;;5061280;28;45265;-81
2023/09/13 06:03:33;;;;;;;;;26.00;25.00;;;;;;;;5042987;28;46040;-80
2023/09/13 06:05:59;;;;;;;;;26.67;25.33;;;;;;;;5059085;28;45268;-79
2023/09/13 06:08:24;;;;;;;;;27.67;27.33;;;;;;;;5053161;28;46975;-82
2023/09/13 06:10:49;;;;;;;;;24.00;24.00;;;;;;;;5060928;28;46131;-81
2023/09/13 06:13:15;;;;;;;;;22.33;22.33;;;;;;;;5060522;28;45222;-81
2023/09/13 06:15:40;;;;;;;;;23.67;20.00;;;;;;;;5061045;28;45509;-82
2023/09/13 06:18:05;;;;;;;;;26.00;24.00;;;;;;;;5060459;28;46085;-82
2023/09/13 06:20:31;;;;;;;;;23.67;19.00;;;;;;;;5060472;28;45379;-81
2023/09/13 06:22:56;;;;;;;;;24.67;21.33;;;;;;;;5060238;28;45255;-81
2023/09/13 06:25:21;;;;;;;;;21.67;21.00;;;;;;;;5060641;28;46245;-82
2023/09/13 06:27:46;;;;;;;;;15.33;15.33;;;;;;;;5060035;28;45324;-81
2023/09/13 06:30:15;;;;;;;;;16.33;15.00;;;;;;;;5076444;28;45376;-80
2023/09/13 06:32:40;;;;;;;;;12.00;12.00;;;;;;;;5066188;28;45490;-80
2023/09/13 06:35:08;;;;;;;;;16.67;15.67;;;;;;;;5059990;28;45339;-82
2023/09/13 06:37:33;;;;;;;;;14.33;14.00;;;;;;;;5062154;28;45598;-82
2023/09/13 06:39:59;;;;;;;;;16.67;15.00;;;;;;;;5060712;28;46400;-79
2023/09/13 06:42:24;;;;;;;;;17.67;16.00;;;;;;;;5063175;28;45347;-79
2023/09/13 06:44:49;;;;;;;;;16.33;15.33;;;;;;;;5060904;28;45227;-79
2023/09/13 06:47:14;;;;;;;;;18.00;17.00;;;;;;;;5060539;28;45156;-79
2023/09/13 06:49:39;;;;;;;;;17.00;16.33;;;;;;;;5060605;28;46468;-79
2023/09/13 06:52:04;;;;;;;;;14.00;14.00;;;;;;;;5061191;28;45243;-81
2023/09/13 06:54:30;;;;;;;;;18.00;16.00;;;;;;;;5059057;28;45327;-79
2023/09/13 06:56:55;;;;;;;;;15.00;14.67;;;;;;;;5060542;28;45341;-79
2023/09/13 06:59:20;;;;;;;;;13.67;13.67;;;;;;;;5060019;28;46244;-78
2023/09/13 07:01:46;;;;;;;;;15.67;15.00;;;;;;;;5057542;28;45367;-79
2023/09/13 07:04:13;;;;;;;;;16.67;14.33;;;;;;;;5041994;28;45414;-78
2023/09/13 07:06:38;;;;;;;;;16.67;13.67;;;;;;;;5041722;28;46904;-78
2023/09/13 07:09:03;;;;;;;;;13.33;11.33;;;;;;;;5041276;28;47256;-79
2023/09/13 07:11:29;;;;;;;;;14.00;12.00;;;;;;;;5059686;28;45385;-78
2023/09/13 07:13:54;;;;;;;;;14.33;11.00;;;;;;;;5059653;28;45359;-78
2023/09/13 07:16:19;;;;;;;;;13.33;13.33;;;;;;;;5061025;28;45352;-79
2023/09/13 07:18:44;;;;;;;;;13.33;13.33;;;;;;;;5041527;28;47132;-78
2023/09/13 07:21:09;;;;;;;;;16.00;15.33;;;;;;;;5059690;28;45463;-78
2023/09/13 07:23:35;;;;;;;;;13.00;13.00;;;;;;;;5041754;28;45470;-78
2023/09/13 07:26:00;;;;;;;;;12.00;11.00;;;;;;;;5041797;28;47166;-79
2023/09/13 07:28:25;;;;;;;;;10.00;10.00;;;;;;;;5059588;28;45377;-78
2023/09/13 07:30:51;;;;;;;;;13.67;13.00;;;;;;;;5041694;28;45399;-78
2023/09/13 07:33:16;;;;;;;;;9.67;9.67;;;;;;;;5041821;28;45367;-78
2023/09/13 07:35:41;;;;;;;;;12.00;9.67;;;;;;;;5059630;28;45536;-79
2023/09/13 07:38:06;;;;;;;;;9.33;9.33;;;;;;;;5059695;28;45375;-79
2023/09/13 07:40:31;;;;;;;;;7.67;7.67;;;;;;;;5059545;28;45324;-78
2023/09/13 07:42:57;;;;;;;;;9.00;9.00;;;;;;;;5031581;28;45659;-78
2023/09/13 07:45:22;;;;;;;;;6.00;6.00;;;;;;;;5054604;28;45466;-78
2023/09/13 07:47:47;;;;;;;;;10.33;8.67;;;;;;;;5057423;28;45273;-78
2023/09/13 07:50:36;;;;;;;;;9.67;8.00;;;;;;;;5046156;28;45357;-77
2023/09/13 07:53:03;;;;;;;;;9.00;8.00;;;;;;;;5040160;28;45407;-77
2023/09/13 07:55:28;;;;;;;;;8.00;8.00;;;;;;;;5039421;28;46120;-77
2023/09/13 07:57:53;;;;;;;;;11.00;9.00;;;;;;;;5047266;28;48104;-78
2023/09/13 08:00:18;;;;;;;;;8.33;8.00;;;;;;;;5045216;28;45571;-78
2023/09/13 08:02:46;;;;;;;;;7.00;6.67;;;;;;;;5058329;28;45471;-78
2023/09/13 08:05:11;;;;;;;;;8.00;8.00;;;;;;;;5040279;28;46233;-77
2023/09/13 08:07:36;;;;;;;;;7.00;7.00;;;;;;;;5039983;28;47407;-77
2023/09/13 08:10:03;;;;;;;;;7.00;5.67;;;;;;;;5058197;28;45349;-79
2023/09/13 08:12:29;;;;;;;;;8.67;8.33;;;;;;;;5074516;28;45229;-77
2023/09/13 08:14:54;;;;;;;;;7.33;7.00;;;;;;;;5078544;28;45269;-78
2023/09/13 08:17:19;;;;;;;;;8.33;7.00;;;;;;;;5066721;28;45406;-78
2023/09/13 08:19:46;;;;;;;;;10.67;8.00;;;;;;;;5058452;28;45310;-77
2023/09/13 08:22:11;;;;;;;;;9.00;7.00;;;;;;;;5073764;28;45499;-77
2023/09/13 08:24:36;;;;;;;;;8.67;8.67;;;;;;;;5068575;28;45336;-77
2023/09/13 08:27:02;;;;;;;;;8.67;8.67;;;;;;;;5059992;28;46120;-78
2023/09/13 08:29:28;;;;;;;;;9.00;9.00;;;;;;;;5047628;28;45569;-79
2023/09/13 08:31:53;;;;;;;;;9.67;9.00;;;;;;;;5066327;28;45379;-78
2023/09/13 08:34:18;;;;;;;;;8.00;8.00;;;;;;;;5061045;28;45580;-78
2023/09/13 08:36:43;;;;;;;;;10.33;9.67;;;;;;;;5040604;28;48018;-77
2023/09/13 08:39:08;;;;;;;;;8.00;8.00;;;;;;;;5023604;28;45485;-77
2023/09/13 08:41:34;;;;;;;;;14.00;13.67;;;;;;;;5041124;28;45383;-77
2023/09/13 08:44:01;;;;;;;;;11.00;10.67;;;;;;;;5040801;28;45570;-77
2023/09/13 08:46:27;;;;;;;;;13.67;11.00;;;;;;;;5023846;28;47344;-77
2023/09/13 08:48:53;;;;;;;;;13.00;13.00;;;;;;;;5023548;28;45283;-77
2023/09/13 08:51:19;;;;;;;;;12.67;11.00;;;;;;;;5041386;28;45325;-77
2023/09/13 08:53:45;;;;;;;;;12.33;11.67;;;;;;;;5040727;28;45277;-77
2023/09/13 08:56:11;;;;;;;;;12.33;10.33;;;;;;;;5034520;28;48039;-76
2023/09/13 08:58:36;;;;;;;;;11.67;11.67;;;;;;;;5066790;28;45521;-77
2023/09/13 09:01:03;;;;;;;;;11.33;11.33;;;;;;;;5069866;28;45456;-76
2023/09/13 09:03:29;;;;;;;;;13.00;12.00;;;;;;;;5067886;28;45351;-76
2023/09/13 09:05:54;;;;;;;;;11.33;10.00;;;;;;;;5070271;28;46302;-76
2023/09/13 09:08:20;;;;;;;;;11.67;11.67;;;;;;;;5062136;28;46350;-77
2023/09/13 09:10:46;;;;;;;;;13.00;12.00;;;;;;;;5070510;28;45349;-76
2023/09/13 09:13:12;;;;;;;;;9.67;9.67;;;;;;;;5069594;28;45336;-78
2023/09/13 09:15:39;;;;;;;;;12.00;10.33;;;;;;;;5061591;28;48209;-77
2023/09/13 09:18:07;;;;;;;;;11.67;10.67;;;;;;;;5070910;28;45182;-77
2023/09/13 09:20:33;;;;;;;;;10.00;10.00;;;;;;;;5070255;28;45342;-78
2023/09/13 09:22:59;;;;;;;;;33.33;30.33;;;;;;;;5055077;28;47003;-76
2023/09/13 09:25:24;;;;;;;;;68.75;56.75;;;;;;;;5069509;28;45516;-78
2023/09/13 09:27:49;;;;;;;;;17.67;17.33;;;;;;;;5070122;28;45364;-79
2023/09/13 09:30:15;;;;;;;;;8.33;7.00;;;;;;;;5061249;28;45538;-77
2023/09/13 09:32:41;;;;;;;;;8.00;8.00;;;;;;;;5071649;28;45301;-76
2023/09/13 09:35:06;;;;;;;;;7.67;7.67;;;;;;;;5059680;28;47104;-76
2023/09/13 09:37:32;;;;;;;;;9.00;9.00;;;;;;;;5060959;28;45268;-77
2023/09/13 09:39:58;;;;;;;;;9.00;9.00;;;;;;;;5071344;28;45596;-75
2023/09/13 09:42:23;;;;;;;;;7.00;7.00;;;;;;;;5054660;28;47324;-76
2023/09/13 09:44:49;;;;;;;;;10.00;9.67;;;;;;;;5055533;28;46683;-76
2023/09/13 09:47:14;;;;;;;;;9.67;8.67;;;;;;;;5045081;28;45354;-77
2023/09/13 09:49:41;;;;;;;;;10.67;10.00;;;;;;;;5078570;28;45323;-77
2023/09/13 09:52:07;;;;;;;;;10.00;10.00;;;;;;;;5078687;28;45376;-76
2023/09/13 09:54:33;;;;;;;;;10.67;9.67;;;;;;;;5078756;28;45467;-76
2023/09/13 09:56:58;;;;;;;;;10.67;10.67;;;;;;;;5080088;28;45393;-79
2023/09/13 09:59:27;;;;;;;;;9.67;9.67;;;;;;;;5081529;28;45379;-78
2023/09/13 10:01:56;;;;;;;;;9.00;9.00;;;;;;;;5081089;28;45254;-78
2023/09/13 10:04:22;;;;;;;;;8.00;8.00;;;;;;;;5081137;28;45393;-79
2023/09/13 10:06:57;;;;;;;;;10.00;10.00;;;;;;;;5079201;28;45832;-78
2023/09/13 10:09:23;;;;;;;;;9.67;9.67;;;;;;;;5080901;28;45813;-79
2023/09/13 10:11:55;;;;;;;;;11.33;10.00;;;;;;;;5059036;28;48643;-82
2023/09/13 10:14:27;;;;;;;;;9.00;8.33;;;;;;;;5051183;28;45265;-79
2023/09/13 10:16:56;;;;;;;;;10.00;9.33;;;;;;;;5042062;28;45440;-79
2023/09/13 10:19:30;;;;;;;;;10.33;10.33;;;;;;;;5041890;28;45237;-80
2023/09/13 10:21:56;;;;;;;;;11.00;11.00;;;;;;;;5040864;28;45394;-82
2023/09/13 10:24:23;;;;;;;;;10.25;8.75;;;;;;;;5040160;28;47033;-80
2023/09/13 10:27:00;;;;;;;;;11.33;10.67;;;;;;;;5042438;28;45481;-84
2023/09/13 10:29:29;;;;;;;;;10.67;10.67;;;;;;;;5045151;28;45342;-81
2023/09/13 10:31:57;;;;;;;;;8.00;8.00;;;;;;;;5038441;28;46112;-80
2023/09/13 10:34:23;;;;;;;;;10.00;9.33;;;;;;;;5063107;28;45485;-81
2023/09/13 10:36:52;;;;;;;;;12.67;10.67;;;;;;;;5058588;28;45409;-81
2023/09/13 10:39:30;;;;;;;;;10.67;10.67;;;;;;;;5061102;28;45321;-79
2023/09/13 10:41:58;;;;;;;;;12.33;11.00;;;;;;;;5060178;28;45459;-79
2023/09/13 10:44:24;;;;;;;;;10.00;10.00;;;;;;;;5059042;28;46313;-78
2023/09/13 10:46:49;;;;;;;;;12.00;11.67;;;;;;;;5060610;28;45238;-78
2023/09/13 10:49:15;;;;;;;;;10.67;9.00;;;;;;;;5058344;28;45424;-77
2023/09/13 10:51:41;;;;;;;;;11.67;11.67;;;;;;;;5051311;28;45512;-78
2023/09/13 10:54:08;;;;;;;;;9.00;9.00;;;;;;;;5052497;28;47145;-79
2023/09/13 10:56:33;;;;;;;;;13.00;12.00;;;;;;;;5068615;28;45381;-76
2023/09/13 10:59:00;;;;;;;;;10.67;10.67;;;;;;;;5059907;28;45231;-78
2023/09/13 11:01:26;;;;;;;;;11.00;11.00;;;;;;;;5063052;28;45298;-79
2023/09/13 11:03:51;;;;;;;;;16.67;15.67;;;;;;;;5043098;28;48529;-80
2023/09/13 11:06:17;;;;;;;;;15.67;15.00;;;;;;;;5067221;28;45411;-78
2023/09/13 11:08:42;;;;;;;;;16.67;15.00;;;;;;;;5076512;28;45323;-76
2023/09/13 11:11:18;;;;;;;;;16.00;15.67;;;;;;;;5062346;28;45445;-76
2023/09/13 11:13:47;;;;;;;;;14.67;14.67;;;;;;;;5062777;28;46100;-78
2023/09/13 11:16:16;;;;;;;;;14.33;14.00;;;;;;;;5061936;28;45669;-80
2023/09/13 11:18:48;;;;;;;;;13.33;13.33;;;;;;;;5063086;28;45354;-79
2023/09/13 11:21:26;;;;;;;;;13.67;13.67;;;;;;;;5063519;28;46929;-79
2023/09/13 11:23:52;;;;;;;;;17.00;16.00;;;;;;;;5064336;28;45487;-77
2023/09/13 11:26:38;;;;;;;;;15.67;15.33;;;;;;;;5066425;28;45387;-77
2023/09/13 11:29:19;;;;;;;;;200.75;198.75;;;;;;;;5079254;28;45480;-74
2023/09/13 11:31:57;;;;;;;;;14.00;14.00;;;;;;;;5065735;28;45362;-73
2023/09/13 11:34:23;;;;;;;;;22.67;19.33;;;;;;;;5058486;28;46083;-74
2023/09/13 11:36:57;;;;;;;;;21.00;19.00;;;;;;;;5039402;28;45852;-74
2023/09/13 11:39:22;;;;;;;;;18.67;16.00;;;;;;;;5058723;28;45373;-73
2023/09/13 11:41:48;;;;;;;;;18.33;17.00;;;;;;;;5040514;28;46060;-73
2023/09/13 11:44:13;;;;;;;;;16.33;15.00;;;;;;;;5057537;28;45501;-73
2023/09/13 11:46:38;;;;;;;;;19.00;19.00;;;;;;;;5029454;28;45427;-73
2023/09/13 11:49:03;;;;;;;;;20.67;16.33;;;;;;;;5057268;28;45273;-73
2023/09/13 11:51:30;;;;;;;;;15.00;15.00;;;;;;;;5058081;28;45300;-73
2023/09/13 11:53:56;;;;;;;;;18.00;17.33;;;;;;;;5057989;28;45658;-73
2023/09/13 11:56:31;;;;;;;;;18.33;18.33;;;;;;;;5040127;28;45440;-74
2023/09/13 11:58:58;;;;;;;;;15.33;15.00;;;;;;;;5075747;28;45299;-74
2023/09/13 12:01:24;;;;;;;;;16.33;15.67;;;;;;;;5082284;28;45295;-74
2023/09/13 12:03:51;;;;;;;;;16.33;16.00;;;;;;;;5078593;28;46211;-74
2023/09/13 12:06:16;;;;;;;;;18.33;18.00;;;;;;;;5061525;28;45342;-73
2023/09/13 12:08:41;;;;;;;;;15.00;15.00;;;;;;;;5059796;28;45422;-73
2023/09/13 12:11:08;;;;;;;;;18.67;17.67;;;;;;;;5061392;28;45394;-73
2023/09/13 12:13:46;;;;;;;;;15.67;15.67;;;;;;;;5062876;28;46016;-73
2023/09/13 12:16:12;;;;;;;;;16.00;16.00;;;;;;;;5062725;28;45337;-74
2023/09/13 12:18:38;;;;;;;;;18.67;16.67;;;;;;;;5052494;28;45257;-74
2023/09/13 12:21:06;;;;;;;;;17.67;15.67;;;;;;;;5062523;28;45285;-74
2023/09/13 12:23:36;;;;;;;;;13.67;13.67;;;;;;;;5062421;28;45281;-74
2023/09/13 12:26:02;;;;;;;;;15.00;15.00;;;;;;;;5062584;28;45350;-73
2023/09/13 12:28:29;;;;;;;;;15.00;13.67;;;;;;;;5063993;28;45288;-74
2023/09/13 12:30:55;;;;;;;;;16.00;16.00;;;;;;;;5077310;28;45213;-74
2023/09/13 12:33:21;;;;;;;;;16.00;15.33;;;;;;;;5059184;28;45402;-75
2023/09/13 12:35:47;;;;;;;;;16.67;16.67;;;;;;;;5045103;28;45347;-74
2023/09/13 12:38:12;;;;;;;;;17.33;17.00;;;;;;;;5043842;28;45430;-74
2023/09/13 12:40:37;;;;;;;;;15.33;15.33;;;;;;;;5026824;28;46145;-74
2023/09/13 12:43:03;;;;;;;;;10.33;10.33;;;;;;;;5041661;28;46208;-74
2023/09/13 12:45:31;;;;;;;;;15.00;15.00;;;;;;;;5023841;28;45398;-76
2023/09/13 12:47:57;;;;;;;;;17.00;15.33;;;;;;;;5045385;28;45411;-76
2023/09/13 12:50:22;;;;;;;;;15.00;14.00;;;;;;;;5041276;28;45557;-75
2023/09/13 12:52:50;;;;;;;;;14.00;14.00;;;;;;;;5039433;28;47011;-76
2023/09/13 12:55:15;;;;;;;;;14.67;14.00;;;;;;;;5064416;28;45669;-74
2023/09/13 12:57:40;;;;;;;;;13.67;11.67;;;;;;;;5069644;28;45452;-73
2023/09/13 13:00:10;;;;;;;;;14.00;13.33;;;;;;;;5075932;28;45378;-72
2023/09/13 13:02:35;;;;;;;;;14.67;14.67;;;;;;;;5062677;28;46422;-73
2023/09/13 13:05:01;;;;;;;;;13.00;11.67;;;;;;;;5081526;28;45311;-73
2023/09/13 13:07:27;;;;;;;;;13.67;13.33;;;;;;;;5062675;28;45503;-74
2023/09/13 13:10:01;;;;;;;;;14.33;13.33;;;;;;;;5066802;28;45298;-73
2023/09/13 13:12:27;;;;;;;;;12.67;12.67;;;;;;;;5045262;28;45602;-74
2023/09/13 13:14:52;;;;;;;;;13.00;13.00;;;;;;;;5068462;28;45393;-73
2023/09/13 13:17:17;;;;;;;;;16.33;16.33;;;;;;;;5060368;28;45341;-73
2023/09/13 13:19:43;;;;;;;;;17.67;17.67;;;;;;;;5067091;28;45402;-73
2023/09/13 13:22:11;;;;;;;;;16.67;16.00;;;;;;;;5069556;28;45346;-74
2023/09/13 13:24:37;;;;;;;;;13.67;13.33;;;;;;;;5073157;28;45410;-75
2023/09/13 13:27:02;;;;;;;;;9.00;9.00;;;;;;;;5072401;28;45338;-74
2023/09/13 13:29:28;;;;;;;;;15.67;15.00;;;;;;;;5045479;28;46852;-74
2023/09/13 13:31:53;;;;;;;;;16.33;16.33;;;;;;;;5073740;28;46255;-74
2023/09/13 13:34:18;;;;;;;;;17.00;17.00;;;;;;;;5072186;28;45331;-73
2023/09/13 13:36:43;;;;;;;;;18.67;17.67;;;;;;;;5038955;28;45335;-75
2023/09/13 13:39:14;;;;;;;;;16.67;16.33;;;;;;;;5065931;28;45714;-74
2023/09/13 13:41:40;;;;;;;;;15.33;15.33;;;;;;;;5071962;28;46103;-73
2023/09/13 13:44:05;;;;;;;;;15.67;15.67;;;;;;;;5059631;28;45287;-73
2023/09/13 13:46:30;;;;;;;;;16.33;16.33;;;;;;;;5069802;28;45360;-73
2023/09/13 13:48:56;;;;;;;;;14.33;14.33;;;;;;;;5069039;28;45323;-73
2023/09/13 13:51:21;;;;;;;;;13.67;13.67;;;;;;;;5051790;28;47151;-73
2023/09/13 13:53:46;;;;;;;;;18.00;17.00;;;;;;;;5060372;28;45280;-73
2023/09/13 13:56:11;;;;;;;;;15.33;15.00;;;;;;;;5063581;28;45189;-74
2023/09/13 13:58:36;;;;;;;;;16.67;16.00;;;;;;;;5070460;28;45286;-74
2023/09/13 14:01:05;;;;;;;;;17.00;16.67;;;;;;;;5071890;28;45329;-75
2023/09/13 14:03:30;;;;;;;;;19.00;18.00;;;;;;;;5077794;28;45690;-73
2023/09/13 14:05:55;;;;;;;;;17.67;17.00;;;;;;;;5074063;28;45390;-73
2023/09/13 14:08:21;;;;;;;;;16.33;16.33;;;;;;;;5070688;28;45443;-73
2023/09/13 14:10:47;;;;;;;;;17.67;17.33;;;;;;;;5074962;28;46031;-73
2023/09/13 14:13:13;;;;;;;;;16.67;16.67;;;;;;;;5042147;28;46407;-73
2023/09/13 14:15:38;;;;;;;;;18.67;18.00;;;;;;;;5048572;28;45513;-75